East Greenbush, New York
Current Conditions -  °F | °C
As of 3:24 AM on Friday 24 Oct 2014 (Local Time) from KALB Reporting Station
Light Rain Light Rain  
Wind Chill: 44°   Ceiling: 400
Heat Index: 46°   Visibility: 4mi
Dew Point: 44°   Wind: 5mph
Humidity: 93%   Direction: 360°N
Pressure: 29.82"   Gusts: NA
Location:  42.59°N, 73.7°W
Report Text: KALB 240724Z 36004KT 4SM -RA BR OVC004 08/07 A2982 RMK AO2 CIG 003V008 P0001 T00780067
Loading
Personal Weather Stations






























Interactive Weather Map
Tropical Storm Tracking
New forecast layout! Learn more

10-Day Weather Forecast

Advertisements
Track Severe Weather on mobile